createdAt,value
2022-10-13T00:00:24.594Z,97.95
2022-10-13T00:01:24.642Z,97.53
2022-10-13T00:02:24.556Z,97.53
2022-10-13T00:03:24.590Z,98.00
2022-10-13T00:04:24.553Z,97.95
2022-10-13T00:05:24.521Z,97.64
2022-10-13T00:06:24.509Z,97.74
2022-10-13T00:07:24.528Z,97.95
2022-10-13T00:08:24.485Z,97.95
2022-10-13T00:09:24.475Z,97.17
2022-10-13T00:10:24.511Z,97.68
2022-10-13T00:11:24.455Z,97.64
2022-10-13T00:12:24.438Z,98.15
2022-10-13T00:13:24.449Z,97.89
2022-10-13T00:14:24.416Z,98.05
2022-10-13T00:15:24.413Z,97.95
2022-10-13T00:16:24.412Z,98.05
2022-10-13T00:17:24.381Z,98.15
2022-10-13T00:18:24.390Z,97.95
2022-10-13T00:19:24.360Z,98.15
2022-10-13T00:20:24.349Z,98.67
2022-10-13T00:21:24.359Z,98.67
2022-10-13T00:22:24.339Z,98.77
2022-10-13T00:23:24.336Z,99.08
2022-10-13T00:24:24.303Z,98.77
2022-10-13T00:25:24.287Z,98.77
2022-10-13T00:26:24.281Z,98.97
2022-10-13T00:27:24.268Z,98.67
2022-10-13T00:28:24.360Z,99.18
2022-10-13T00:29:24.261Z,98.77
2022-10-13T00:30:24.236Z,99.08
2022-10-13T00:31:24.269Z,98.88
2022-10-13T00:32:24.248Z,98.67
2022-10-13T00:33:24.199Z,98.88
2022-10-13T00:34:24.225Z,98.77
2022-10-13T00:35:24.186Z,99.08
2022-10-13T00:36:24.170Z,99.24
2022-10-13T00:37:24.173Z,99.04
2022-10-13T00:38:24.145Z,98.36
2022-10-13T00:39:24.151Z,98.67
2022-10-13T00:40:24.119Z,98.97
2022-10-13T00:41:24.110Z,98.77
2022-10-13T00:42:24.113Z,98.57
2022-10-13T00:43:24.094Z,98.82
2022-10-13T00:44:24.091Z,98.88
2022-10-13T00:45:24.068Z,98.57
2022-10-13T00:46:24.050Z,98.67
2022-10-13T00:47:24.099Z,98.88
2022-10-13T00:48:24.046Z,99.39
2022-10-13T00:49:24.034Z,98.97
2022-10-13T00:50:24.006Z,98.88
2022-10-13T00:51:23.991Z,99.08
2022-10-13T00:52:24.000Z,99.29
2022-10-13T00:53:23.967Z,99.08
2022-10-13T00:54:23.980Z,99.18
2022-10-13T00:55:23.966Z,98.77
2022-10-13T00:56:23.933Z,99.44
2022-10-13T00:57:24.945Z,99.34
2022-10-13T00:58:23.941Z,99.44
2022-10-13T00:59:23.901Z,99.34
2022-10-13T01:00:23.891Z,99.44
2022-10-13T01:01:23.885Z,99.34
2022-10-13T01:02:23.902Z,99.24
2022-10-13T01:03:23.882Z,99.55
2022-10-13T01:04:23.862Z,99.44
2022-10-13T01:05:23.829Z,99.44
2022-10-13T01:06:24.087Z,99.24
2022-10-13T01:07:23.809Z,99.24
2022-10-13T01:08:23.833Z,99.34
2022-10-13T01:09:23.785Z,99.34
2022-10-13T01:10:23.779Z,99.44
2022-10-13T01:11:23.762Z,99.44
2022-10-13T01:12:23.752Z,99.44
2022-10-13T01:13:23.763Z,99.34
2022-10-13T01:14:23.740Z,99.34
2022-10-13T01:15:23.727Z,99.34
2022-10-13T01:16:23.719Z,99.24
2022-10-13T01:17:23.737Z,99.55
2022-10-13T01:18:23.707Z,99.65
2022-10-13T01:19:23.672Z,99.86
2022-10-13T01:20:23.679Z,99.55
2022-10-13T01:21:23.649Z,99.86
2022-10-13T01:22:23.641Z,99.96
2022-10-13T01:23:23.635Z,99.76
2022-10-13T01:24:23.638Z,99.81
2022-10-13T01:25:23.624Z,99.60
2022-10-13T01:26:23.591Z,99.65
2022-10-13T01:27:23.581Z,99.60
2022-10-13T01:28:23.635Z,99.99
2022-10-13T01:29:23.596Z,99.99
2022-10-13T01:30:23.569Z,99.99
2022-10-13T01:31:23.564Z,99.99
2022-10-13T01:32:23.524Z,99.99
2022-10-13T01:33:23.515Z,99.99
2022-10-13T01:34:23.521Z,99.99
2022-10-13T01:35:23.524Z,99.99
2022-10-13T01:36:23.494Z,99.99
2022-10-13T01:37:23.479Z,99.81
2022-10-13T01:38:23.459Z,99.99
2022-10-13T01:39:23.447Z,99.99
2022-10-13T01:40:23.454Z,99.81
2022-10-13T01:41:23.439Z,99.99
2022-10-13T01:42:23.410Z,99.99
2022-10-13T01:43:23.401Z,99.99
2022-10-13T01:44:23.391Z,99.99
2022-10-13T01:45:23.398Z,99.99
2022-10-13T01:46:23.366Z,99.99
2022-10-13T01:47:23.367Z,99.99
2022-10-13T01:48:23.364Z,99.99
2022-10-13T01:49:23.328Z,99.96
2022-10-13T01:50:23.340Z,99.86
2022-10-13T01:51:23.335Z,99.65
2022-10-13T01:52:23.313Z,99.55
2022-10-13T01:53:23.329Z,99.55
2022-10-13T01:54:23.271Z,99.24
2022-10-13T01:55:23.285Z,99.24
2022-10-13T01:56:23.255Z,99.34
2022-10-13T01:57:23.263Z,99.14
2022-10-13T01:58:23.230Z,99.44
2022-10-13T01:59:23.233Z,99.34
2022-10-13T02:00:23.263Z,99.24
2022-10-13T02:01:23.216Z,99.55
2022-10-13T02:02:23.248Z,99.49
2022-10-13T02:03:23.174Z,99.60
2022-10-13T02:04:23.224Z,99.18
2022-10-13T02:05:23.161Z,99.29
2022-10-13T02:06:23.141Z,99.08
2022-10-13T02:07:23.150Z,99.18
2022-10-13T02:08:23.135Z,98.97
2022-10-13T02:09:23.106Z,99.64
2022-10-13T02:10:23.091Z,99.64
2022-10-13T02:11:23.126Z,99.49
2022-10-13T02:12:23.074Z,99.60
2022-10-13T02:13:23.078Z,99.70
2022-10-13T02:14:23.066Z,99.49
2022-10-13T02:15:23.036Z,99.08
2022-10-13T02:16:23.027Z,99.08
2022-10-13T02:17:23.022Z,99.49
2022-10-13T02:18:23.022Z,99.29
2022-10-13T02:19:22.991Z,99.49
2022-10-13T02:20:22.978Z,99.29
2022-10-13T02:21:22.966Z,99.08
2022-10-13T02:22:22.958Z,99.08
2022-10-13T02:23:23.007Z,99.18
2022-10-13T02:24:22.961Z,99.60
2022-10-13T02:25:22.923Z,99.34
2022-10-13T02:26:22.933Z,99.90
2022-10-13T02:27:22.898Z,99.60
2022-10-13T02:28:22.921Z,99.80
2022-10-13T02:29:22.936Z,99.55
2022-10-13T02:30:22.864Z,99.99
2022-10-13T02:31:22.858Z,99.99
2022-10-13T02:32:22.840Z,99.99
2022-10-13T02:33:22.830Z,99.99
2022-10-13T02:34:22.836Z,99.76
2022-10-13T02:35:22.849Z,99.99
2022-10-13T02:36:22.801Z,99.99
2022-10-13T02:37:22.787Z,99.76
2022-10-13T02:38:22.988Z,99.86
2022-10-13T02:39:22.764Z,99.86
2022-10-13T02:40:22.822Z,99.86
2022-10-13T02:41:22.741Z,99.99
2022-10-13T02:42:23.410Z,99.76
2022-10-13T02:43:22.777Z,99.99
2022-10-13T02:44:22.700Z,99.99
2022-10-13T02:45:22.710Z,99.99
2022-10-13T02:46:22.695Z,99.99
2022-10-13T02:47:22.671Z,99.99
2022-10-13T02:48:22.678Z,99.99
2022-10-13T02:49:22.664Z,99.99
2022-10-13T02:50:22.639Z,99.99
2022-10-13T02:51:22.626Z,99.99
2022-10-13T02:52:22.794Z,99.99
2022-10-13T02:53:22.601Z,99.99
2022-10-13T02:54:22.609Z,99.99
2022-10-13T02:55:22.577Z,99.99
2022-10-13T02:56:22.583Z,99.99
2022-10-13T02:57:22.592Z,99.99
2022-10-13T02:58:22.543Z,99.99
2022-10-13T02:59:22.531Z,99.99
2022-10-13T03:00:22.569Z,99.99
2022-10-13T03:01:22.514Z,99.99
2022-10-13T03:02:23.173Z,99.99
2022-10-13T03:03:22.485Z,99.99
2022-10-13T03:04:22.475Z,99.99
2022-10-13T03:05:22.463Z,99.99
2022-10-13T03:06:22.474Z,99.99
2022-10-13T03:07:22.501Z,99.99
2022-10-13T03:08:22.428Z,99.99
2022-10-13T03:09:22.418Z,99.99
2022-10-13T03:10:22.408Z,99.99
2022-10-13T03:11:22.416Z,99.99
2022-10-13T03:12:22.806Z,99.99
2022-10-13T03:13:22.425Z,99.99
2022-10-13T03:14:22.380Z,99.99
2022-10-13T03:15:22.375Z,99.99
2022-10-13T03:16:22.337Z,99.99
2022-10-13T03:17:22.350Z,99.99
2022-10-13T03:18:22.313Z,99.99
2022-10-13T03:19:22.330Z,99.99
2022-10-13T03:20:22.303Z,99.99
2022-10-13T03:21:22.299Z,99.99
2022-10-13T03:22:22.649Z,99.99
2022-10-13T03:23:22.254Z,99.99
2022-10-13T03:24:22.243Z,99.99
2022-10-13T03:25:29.968Z,99.99
2022-10-13T03:26:22.337Z,99.99
2022-10-13T03:27:22.368Z,99.99
2022-10-13T03:28:22.353Z,99.99
2022-10-13T03:29:22.255Z,99.99
2022-10-13T03:30:22.212Z,99.99
2022-10-13T03:31:22.208Z,99.99
2022-10-13T03:32:22.637Z,99.99
2022-10-13T03:33:22.176Z,99.99
2022-10-13T03:34:22.135Z,99.99
2022-10-13T03:35:22.120Z,99.99
2022-10-13T03:36:22.109Z,99.99
2022-10-13T03:37:22.101Z,99.99
2022-10-13T03:38:22.201Z,99.99
2022-10-13T03:39:22.117Z,99.99
2022-10-13T03:40:22.064Z,99.99
2022-10-13T03:41:29.858Z,99.99
2022-10-13T03:42:22.395Z,99.91
2022-10-13T03:43:22.024Z,99.99
2022-10-13T03:44:22.069Z,99.99
2022-10-13T03:45:22.006Z,99.99
2022-10-13T03:46:22.060Z,99.99
2022-10-13T03:47:22.235Z,99.99
2022-10-13T03:48:22.132Z,99.99
2022-10-13T03:49:22.010Z,99.99
2022-10-13T03:50:21.948Z,99.99
2022-10-13T03:51:21.963Z,99.99
2022-10-13T03:52:22.322Z,99.99
2022-10-13T03:53:21.914Z,99.99
2022-10-13T03:54:21.932Z,99.99
2022-10-13T03:55:21.916Z,99.99
2022-10-13T03:56:21.878Z,99.99
2022-10-13T03:57:21.869Z,99.99
2022-10-13T03:58:21.876Z,99.99
2022-10-13T03:59:21.865Z,99.99
2022-10-13T04:00:21.872Z,99.99
2022-10-13T04:01:21.933Z,99.99
2022-10-13T04:02:22.290Z,99.99
2022-10-13T04:03:21.803Z,99.99
2022-10-13T04:04:21.792Z,99.99
2022-10-13T04:05:21.808Z,99.99
2022-10-13T04:06:21.791Z,99.99
2022-10-13T04:07:21.756Z,99.99
2022-10-13T04:08:21.748Z,99.99
2022-10-13T04:09:21.753Z,99.99
2022-10-13T04:10:21.742Z,99.99
2022-10-13T04:11:21.796Z,99.99
2022-10-13T04:12:21.725Z,99.99
2022-10-13T04:13:21.688Z,99.99
2022-10-13T04:14:21.694Z,99.99
2022-10-13T04:15:21.663Z,99.99
2022-10-13T04:16:21.689Z,99.99
2022-10-13T04:17:21.657Z,99.99
2022-10-13T04:18:21.633Z,99.99
2022-10-13T04:19:22.126Z,99.99
2022-10-13T04:20:21.606Z,99.99
2022-10-13T04:21:21.621Z,99.99
2022-10-13T04:22:22.015Z,99.99
2022-10-13T04:23:23.923Z,99.99
2022-10-13T04:24:21.562Z,99.99
2022-10-13T04:25:21.554Z,99.99
2022-10-13T04:26:21.567Z,99.99
2022-10-13T04:27:21.534Z,99.99
2022-10-13T04:28:21.563Z,99.99
2022-10-13T04:29:21.524Z,99.99
2022-10-13T04:30:21.500Z,99.99
2022-10-13T04:31:21.511Z,99.95
2022-10-13T04:32:21.988Z,99.99
2022-10-13T04:33:21.494Z,99.90
2022-10-13T04:34:21.481Z,99.99
2022-10-13T04:35:21.435Z,99.85
2022-10-13T04:36:21.434Z,99.74
2022-10-13T04:37:21.435Z,99.74
2022-10-13T04:38:21.425Z,99.99
2022-10-13T04:39:21.401Z,99.74
2022-10-13T04:40:21.406Z,99.99
2022-10-13T04:41:21.370Z,99.85
2022-10-13T04:42:21.718Z,99.99
2022-10-13T04:43:21.366Z,99.99
2022-10-13T04:44:21.334Z,99.99
2022-10-13T04:45:21.324Z,99.99
2022-10-13T04:46:21.332Z,99.99
2022-10-13T04:47:21.298Z,99.79
2022-10-13T04:48:21.336Z,99.79
2022-10-13T04:49:21.309Z,99.79
2022-10-13T04:50:21.285Z,99.90
2022-10-13T04:51:21.251Z,99.73
2022-10-13T04:52:21.612Z,99.73
2022-10-13T04:53:21.246Z,99.73
2022-10-13T04:54:21.230Z,99.73
2022-10-13T04:55:21.233Z,99.43
2022-10-13T04:56:21.201Z,99.73
2022-10-13T04:57:21.187Z,99.63
2022-10-13T04:58:21.188Z,99.63
2022-10-13T04:59:21.171Z,99.63
2022-10-13T05:00:21.211Z,99.52
2022-10-13T05:01:22.310Z,99.52
2022-10-13T05:02:21.684Z,99.57
2022-10-13T05:03:21.116Z,99.63
2022-10-13T05:04:21.127Z,99.57
2022-10-13T05:05:21.116Z,99.37
2022-10-13T05:06:21.079Z,99.57
2022-10-13T05:07:21.075Z,99.57
2022-10-13T05:08:21.058Z,99.57
2022-10-13T05:09:21.053Z,99.37
2022-10-13T05:10:21.077Z,99.37
2022-10-13T05:11:21.028Z,99.68
2022-10-13T05:12:21.259Z,99.57
2022-10-13T05:13:20.999Z,99.47
2022-10-13T05:14:21.011Z,99.62
2022-10-13T05:15:20.982Z,99.62
2022-10-13T05:16:20.994Z,99.72
2022-10-13T05:17:20.962Z,99.47
2022-10-13T05:18:20.943Z,99.52
2022-10-13T05:19:20.952Z,99.37
2022-10-13T05:20:20.964Z,99.41
2022-10-13T05:21:20.920Z,99.62
2022-10-13T05:22:21.430Z,99.31
2022-10-13T05:23:20.895Z,99.52
2022-10-13T05:24:20.877Z,99.31
2022-10-13T05:25:20.897Z,99.52
2022-10-13T05:26:20.874Z,99.31
2022-10-13T05:27:20.843Z,99.31
2022-10-13T05:28:20.889Z,99.72
2022-10-13T05:29:20.824Z,99.62
2022-10-13T05:30:20.828Z,99.52
2022-10-13T05:31:20.799Z,99.62
2022-10-13T05:32:21.122Z,99.62
2022-10-13T05:33:20.781Z,99.87
2022-10-13T05:34:20.804Z,99.56
2022-10-13T05:35:20.772Z,99.72
2022-10-13T05:36:20.774Z,99.25
2022-10-13T05:37:20.729Z,99.56
2022-10-13T05:38:25.802Z,99.66
2022-10-13T05:39:21.739Z,99.62
2022-10-13T05:40:20.732Z,99.56
2022-10-13T05:41:20.687Z,99.52
2022-10-13T05:42:21.100Z,99.31
2022-10-13T05:43:20.682Z,99.56
2022-10-13T05:44:20.662Z,99.25
2022-10-13T05:45:20.660Z,99.25
2022-10-13T05:46:20.781Z,99.66
2022-10-13T05:47:20.621Z,99.56
2022-10-13T05:48:20.631Z,99.66
2022-10-13T05:49:20.602Z,99.35
2022-10-13T05:50:20.594Z,99.35
2022-10-13T05:51:20.599Z,99.56
2022-10-13T05:52:21.093Z,99.35
2022-10-13T05:53:20.556Z,99.46
2022-10-13T05:54:20.541Z,99.66
2022-10-13T05:55:20.529Z,99.77
2022-10-13T05:56:20.818Z,99.56
2022-10-13T05:57:20.560Z,99.56
2022-10-13T05:58:20.507Z,99.77
2022-10-13T05:59:24.587Z,99.87
2022-10-13T06:00:21.964Z,99.87
2022-10-13T06:01:20.480Z,99.56
2022-10-13T06:02:20.872Z,99.25
2022-10-13T06:03:20.525Z,99.56
2022-10-13T06:04:20.429Z,99.25
2022-10-13T06:05:20.482Z,99.66
2022-10-13T06:06:20.438Z,99.66
2022-10-13T06:07:20.405Z,99.56
2022-10-13T06:08:20.467Z,99.66
2022-10-13T06:09:20.379Z,99.99
2022-10-13T06:10:20.364Z,99.99
2022-10-13T06:11:20.357Z,99.99
2022-10-13T06:12:20.529Z,99.99
2022-10-13T06:13:20.338Z,99.99
2022-10-13T06:14:20.362Z,99.99
2022-10-13T06:15:22.366Z,99.99
2022-10-13T06:16:21.300Z,99.99
2022-10-13T06:17:20.310Z,99.99
2022-10-13T06:18:20.275Z,99.99
2022-10-13T06:19:20.262Z,99.99
2022-10-13T06:20:20.296Z,99.99
2022-10-13T06:21:20.237Z,99.99
2022-10-13T06:22:29.932Z,99.99
2022-10-13T06:23:20.224Z,99.99
2022-10-13T06:24:20.228Z,99.99
2022-10-13T06:25:20.195Z,99.99
2022-10-13T06:26:20.192Z,99.99
2022-10-13T06:27:20.248Z,99.99
2022-10-13T06:28:20.238Z,99.99
2022-10-13T06:29:20.152Z,99.99
2022-10-13T06:30:20.136Z,99.99
2022-10-13T06:31:20.147Z,99.99
2022-10-13T06:32:20.483Z,99.99
2022-10-13T06:33:20.121Z,99.99
2022-10-13T06:34:20.092Z,99.99
2022-10-13T06:35:20.087Z,99.99
2022-10-13T06:36:20.088Z,99.99
2022-10-13T06:37:24.660Z,99.99
2022-10-13T06:38:21.073Z,99.99
2022-10-13T06:39:20.040Z,99.99
2022-10-13T06:40:20.084Z,99.99
2022-10-13T06:41:20.015Z,99.99
2022-10-13T06:42:20.293Z,99.99
2022-10-13T06:43:20.009Z,99.99
2022-10-13T06:44:19.992Z,99.99
2022-10-13T06:45:19.967Z,99.99
2022-10-13T06:46:19.957Z,99.99
2022-10-13T06:47:19.965Z,99.99
2022-10-13T06:48:19.936Z,99.99
2022-10-13T06:49:19.925Z,99.99
2022-10-13T06:50:19.953Z,99.99
2022-10-13T06:51:19.900Z,99.99
2022-10-13T06:52:20.231Z,99.99
2022-10-13T06:53:19.876Z,99.99
2022-10-13T06:54:19.870Z,99.99
2022-10-13T06:55:19.854Z,99.99
2022-10-13T06:56:19.879Z,99.99
2022-10-13T06:57:19.832Z,99.99
2022-10-13T06:58:19.823Z,99.99
2022-10-13T06:59:19.805Z,99.99
2022-10-13T07:00:19.797Z,99.99
2022-10-13T07:01:19.805Z,99.99
2022-10-13T07:02:20.074Z,99.99
2022-10-13T07:03:19.782Z,99.99
2022-10-13T07:04:19.770Z,99.99
2022-10-13T07:05:19.743Z,99.99
2022-10-13T07:06:19.730Z,99.99
2022-10-13T07:07:19.740Z,99.99
2022-10-13T07:08:19.719Z,99.99
2022-10-13T07:09:19.696Z,99.99
2022-10-13T07:10:19.684Z,99.99
2022-10-13T07:11:19.698Z,99.99
2022-10-13T07:12:19.893Z,99.99
2022-10-13T07:13:19.651Z,99.99
2022-10-13T07:14:19.652Z,99.99
2022-10-13T07:15:19.656Z,99.99
2022-10-13T07:16:19.623Z,99.99
2022-10-13T07:17:19.768Z,99.99
2022-10-13T07:18:19.614Z,99.99
2022-10-13T07:19:26.693Z,99.99
2022-10-13T07:20:26.748Z,99.99
2022-10-13T07:21:19.573Z,99.99
2022-10-13T07:22:26.710Z,99.99
2022-10-13T07:23:27.187Z,99.99
2022-10-13T07:24:28.335Z,99.99
2022-10-13T07:25:27.118Z,99.99
2022-10-13T07:26:28.501Z,99.99
2022-10-13T07:27:26.622Z,99.99
2022-10-13T07:28:19.557Z,99.99
2022-10-13T07:29:19.515Z,99.99
2022-10-13T07:30:19.470Z,99.99
2022-10-13T07:31:19.486Z,99.99
2022-10-13T07:32:19.445Z,99.99
2022-10-13T07:33:19.456Z,99.99
2022-10-13T07:34:19.419Z,99.99
2022-10-13T07:35:19.427Z,99.99
2022-10-13T07:36:19.410Z,99.99
2022-10-13T07:37:20.171Z,99.99
2022-10-13T07:38:19.397Z,99.99
2022-10-13T07:39:19.359Z,99.99
2022-10-13T07:40:19.344Z,99.99
2022-10-13T07:41:19.336Z,99.99
2022-10-13T07:42:19.330Z,99.99
2022-10-13T07:43:19.352Z,99.99
2022-10-13T07:44:19.329Z,99.99
2022-10-13T07:45:19.295Z,99.99
2022-10-13T07:46:19.287Z,99.99
2022-10-13T07:47:19.577Z,99.99
2022-10-13T07:48:19.339Z,99.99
2022-10-13T07:49:19.249Z,99.99
2022-10-13T07:50:19.250Z,99.99
2022-10-13T07:51:19.223Z,99.99
2022-10-13T07:52:19.434Z,99.99
2022-10-13T07:53:19.219Z,99.99
2022-10-13T07:54:22.531Z,99.99
2022-10-13T07:55:20.178Z,99.99
2022-10-13T07:56:19.181Z,99.99
2022-10-13T07:57:19.154Z,99.99
2022-10-13T07:58:19.174Z,99.99
2022-10-13T07:59:19.152Z,99.99
2022-10-13T08:00:19.134Z,99.99
2022-10-13T08:01:19.160Z,99.99
2022-10-13T08:02:19.482Z,99.99
2022-10-13T08:03:19.112Z,99.99
2022-10-13T08:04:19.078Z,99.99
2022-10-13T08:05:19.065Z,99.99
2022-10-13T08:06:19.076Z,99.99
2022-10-13T08:07:19.418Z,99.99
2022-10-13T08:08:19.043Z,99.99
2022-10-13T08:09:19.041Z,99.99
2022-10-13T08:10:19.009Z,99.99
2022-10-13T08:11:18.997Z,99.99
2022-10-13T08:12:19.320Z,99.93
2022-10-13T08:13:18.976Z,99.72
2022-10-13T08:14:19.014Z,99.82
2022-10-13T08:15:18.974Z,99.37
2022-10-13T08:16:18.941Z,99.62
2022-10-13T08:17:19.267Z,99.57
2022-10-13T08:18:18.919Z,99.06
2022-10-13T08:19:18.926Z,98.55
2022-10-13T08:20:18.931Z,98.75
2022-10-13T08:22:19.888Z,97.99
2022-10-13T08:23:18.865Z,97.79
2022-10-13T08:24:18.851Z,97.89
2022-10-13T08:25:18.861Z,97.38
2022-10-13T08:26:18.847Z,97.89
2022-10-13T08:27:19.337Z,97.69
2022-10-13T08:28:18.881Z,97.03
2022-10-13T08:29:23.603Z,97.13
2022-10-13T08:30:20.177Z,97.13
2022-10-13T08:31:19.152Z,97.13
2022-10-13T08:32:19.020Z,96.21
2022-10-13T08:33:18.758Z,96.01
2022-10-13T08:34:18.744Z,95.60
2022-10-13T08:35:18.740Z,95.50
2022-10-13T08:36:18.735Z,95.29
2022-10-13T08:37:18.722Z,95.35
2022-10-13T08:38:18.707Z,95.80
2022-10-13T08:39:18.683Z,94.98
2022-10-13T08:40:18.685Z,95.09
2022-10-13T08:41:18.699Z,94.17
2022-10-13T08:42:18.911Z,95.39
2022-10-13T08:43:18.635Z,95.25
2022-10-13T08:45:06.275Z,95.04
2022-10-13T08:45:40.230Z,95.15
2022-10-13T08:46:19.630Z,94.84
2022-10-13T08:47:18.727Z,95.04
2022-10-13T08:48:18.578Z,94.23
2022-10-13T08:49:18.575Z,93.92
2022-10-13T08:50:18.569Z,94.38
2022-10-13T08:51:18.566Z,93.98
2022-10-13T08:52:18.980Z,94.38
2022-10-13T08:53:18.537Z,93.77
2022-10-13T08:54:18.513Z,93.37
2022-10-13T08:55:18.522Z,93.67
2022-10-13T08:56:18.509Z,93.37
2022-10-13T08:57:18.921Z,92.86
2022-10-13T08:58:18.479Z,92.86
2022-10-13T08:59:18.456Z,93.02
2022-10-13T09:00:18.446Z,93.43
2022-10-13T09:01:18.470Z,93.22
2022-10-13T09:02:18.464Z,93.12
2022-10-13T09:03:18.432Z,93.22
2022-10-13T09:04:18.400Z,93.43
2022-10-13T09:05:18.411Z,93.93
2022-10-13T09:06:18.393Z,93.32
2022-10-13T09:07:18.729Z,93.18
2022-10-13T09:08:18.361Z,92.77
2022-10-13T09:09:18.354Z,93.18
2022-10-13T09:10:18.351Z,92.97
2022-10-13T09:11:18.352Z,91.40
2022-10-13T09:12:18.639Z,90.48
2022-10-13T09:13:18.316Z,90.69
2022-10-13T09:14:18.326Z,91.30
2022-10-13T09:15:18.299Z,90.89
2022-10-13T09:16:18.279Z,91.16
2022-10-13T09:17:18.252Z,90.75
2022-10-13T09:18:19.071Z,90.24
2022-10-13T09:19:18.254Z,90.03
2022-10-13T09:20:18.217Z,90.30
2022-10-13T09:21:18.249Z,89.28
2022-10-13T09:22:18.508Z,88.67
2022-10-13T09:23:18.284Z,88.57
2022-10-13T09:24:18.176Z,87.65
2022-10-13T09:25:18.183Z,87.45
2022-10-13T09:26:25.837Z,86.83
2022-10-13T09:27:18.266Z,87.30
2022-10-13T09:28:18.269Z,87.20
2022-10-13T09:29:18.183Z,87.41
2022-10-13T09:30:18.157Z,86.69
2022-10-13T09:31:18.118Z,86.55
2022-10-13T09:32:18.423Z,86.45
2022-10-13T09:33:18.067Z,86.65
2022-10-13T09:34:18.071Z,86.86
2022-10-13T09:35:18.062Z,85.43
2022-10-13T09:36:18.062Z,85.29
2022-10-13T09:37:18.030Z,85.74
2022-10-13T09:38:18.017Z,85.19
2022-10-13T09:39:18.016Z,84.78
2022-10-13T09:40:18.008Z,84.99
2022-10-13T09:41:27.087Z,85.49
2022-10-13T09:42:18.454Z,84.78
2022-10-13T09:43:17.967Z,85.05
2022-10-13T09:44:17.996Z,84.54
2022-10-13T09:45:18.089Z,83.62
2022-10-13T09:46:17.956Z,84.34
2022-10-13T09:47:17.931Z,83.28
2022-10-13T09:48:17.910Z,83.83
2022-10-13T09:49:17.893Z,83.53
2022-10-13T09:50:17.887Z,83.59
2022-10-13T09:51:17.995Z,83.28
2022-10-13T09:52:18.152Z,83.69
2022-10-13T09:53:17.851Z,83.24
2022-10-13T09:54:17.841Z,83.45
2022-10-13T09:55:17.828Z,83.34
2022-10-13T09:56:18.591Z,82.43
2022-10-13T09:57:17.801Z,82.23
2022-10-13T09:58:17.793Z,82.33
2022-10-13T09:59:17.779Z,81.92
2022-10-13T10:00:17.795Z,81.21
2022-10-13T10:01:17.759Z,82.23
2022-10-13T10:02:19.486Z,81.92
2022-10-13T10:03:17.764Z,81.01
2022-10-13T10:04:17.812Z,80.60
2022-10-13T10:05:17.721Z,80.91
2022-10-13T10:06:17.704Z,82.12
2022-10-13T10:07:18.182Z,82.23
2022-10-13T10:08:17.710Z,82.33
2022-10-13T10:09:17.669Z,81.01
2022-10-13T10:10:17.685Z,80.80
2022-10-13T10:11:17.652Z,81.88
2022-10-13T10:12:17.636Z,81.92
2022-10-13T10:13:17.644Z,81.88
2022-10-13T10:14:17.624Z,82.09
2022-10-13T10:15:17.607Z,82.39
2022-10-13T10:16:17.595Z,82.29
2022-10-13T10:17:17.989Z,81.27
2022-10-13T10:18:17.592Z,81.18
2022-10-13T10:19:17.560Z,82.45
2022-10-13T10:20:17.550Z,82.25
2022-10-13T10:21:17.566Z,81.74
2022-10-13T10:22:17.552Z,80.63
2022-10-13T10:23:17.529Z,80.53
2022-10-13T10:24:17.507Z,80.73
2022-10-13T10:25:17.490Z,80.63
2022-10-13T10:26:22.258Z,80.87
2022-10-13T10:28:17.509Z,80.26
2022-10-13T10:29:17.467Z,80.77
2022-10-13T10:30:17.443Z,81.13
2022-10-13T10:31:17.420Z,81.64
2022-10-13T10:32:17.813Z,81.34
2022-10-13T10:33:17.399Z,82.45
2022-10-13T10:34:17.410Z,82.35
2022-10-13T10:35:17.388Z,82.62
2022-10-13T10:36:17.371Z,82.11
2022-10-13T10:37:21.200Z,82.31
2022-10-13T10:38:18.355Z,81.30
2022-10-13T10:39:17.373Z,81.50
2022-10-13T10:40:17.316Z,80.99
2022-10-13T10:41:17.308Z,80.69
2022-10-13T10:42:17.651Z,80.55
2022-10-13T10:43:17.315Z,80.69
2022-10-13T10:44:17.291Z,80.39
2022-10-13T10:45:17.260Z,80.49
2022-10-13T10:46:17.251Z,80.19
2022-10-13T10:47:19.725Z,80.29
2022-10-13T10:48:18.253Z,81.10
2022-10-13T10:49:17.218Z,80.45
2022-10-13T10:50:17.206Z,79.94
2022-10-13T10:51:17.210Z,80.35
2022-10-13T10:52:17.178Z,80.35
2022-10-13T10:53:17.185Z,79.85
2022-10-13T10:54:17.190Z,79.54
2022-10-13T10:55:17.777Z,79.03
2022-10-13T10:56:17.178Z,79.54
2022-10-13T10:57:17.365Z,79.03
2022-10-13T10:58:17.109Z,79.24
2022-10-13T10:59:20.476Z,79.44
2022-10-13T11:00:17.119Z,79.34
2022-10-13T11:01:17.124Z,80.35
2022-10-13T11:02:17.469Z,79.74
2022-10-13T11:03:17.056Z,79.34
2022-10-13T11:04:17.052Z,79.80
2022-10-13T11:05:17.040Z,79.64
2022-10-13T11:06:17.018Z,79.20
2022-10-13T11:07:17.012Z,79.34
2022-10-13T11:08:17.018Z,78.79
2022-10-13T11:09:17.006Z,77.78
2022-10-13T11:10:17.063Z,78.28
2022-10-13T11:11:16.984Z,79.40
2022-10-13T11:12:17.246Z,79.64
2022-10-13T11:13:16.989Z,78.93
2022-10-13T11:14:16.932Z,78.79
2022-10-13T11:15:16.936Z,79.13
2022-10-13T11:16:16.903Z,79.34
2022-10-13T11:17:16.890Z,79.54
2022-10-13T11:18:21.775Z,79.60
2022-10-13T11:19:17.869Z,78.79
2022-10-13T11:20:16.871Z,77.68
2022-10-13T11:21:16.849Z,77.88
2022-10-13T11:22:17.102Z,77.72
2022-10-13T11:23:16.821Z,78.79
2022-10-13T11:24:16.860Z,79.10
2022-10-13T11:25:16.812Z,79.50
2022-10-13T11:26:16.800Z,78.59
2022-10-13T11:27:16.828Z,77.92
2022-10-13T11:28:16.826Z,78.08
2022-10-13T11:29:16.776Z,79.10
2022-10-13T11:30:16.801Z,78.39
2022-10-13T11:31:16.745Z,77.21
2022-10-13T11:32:16.769Z,77.58
2022-10-13T11:33:16.714Z,79.10
2022-10-13T11:34:16.695Z,79.50
2022-10-13T11:35:16.682Z,79.00
2022-10-13T11:36:16.688Z,78.93
2022-10-13T11:37:16.656Z,78.59
2022-10-13T11:38:17.920Z,79.20
2022-10-13T11:39:16.842Z,77.88
2022-10-13T11:40:16.679Z,77.78
2022-10-13T11:41:16.746Z,78.19
2022-10-13T11:42:16.747Z,78.49
2022-10-13T11:43:16.610Z,78.66
2022-10-13T11:44:16.606Z,79.16
2022-10-13T11:45:16.606Z,78.86
2022-10-13T11:46:16.556Z,77.34
2022-10-13T11:47:16.587Z,77.75
2022-10-13T11:48:16.547Z,77.84
2022-10-13T11:49:16.524Z,78.35
2022-10-13T11:50:16.532Z,79.16
2022-10-13T11:51:16.795Z,77.91
2022-10-13T11:52:16.495Z,78.05
2022-10-13T11:53:16.478Z,77.84
2022-10-13T11:54:16.503Z,77.50
2022-10-13T11:55:16.485Z,77.54
2022-10-13T11:56:16.559Z,77.95
2022-10-13T11:57:16.435Z,76.50
2022-10-13T11:58:16.439Z,77.00
2022-10-13T11:59:16.432Z,76.53
2022-10-13T12:00:16.419Z,76.70
2022-10-13T12:01:16.391Z,77.91
2022-10-13T12:02:18.978Z,78.01
2022-10-13T12:03:16.441Z,78.01
2022-10-13T12:04:16.369Z,76.59
2022-10-13T12:05:16.365Z,77.71
2022-10-13T12:06:16.329Z,77.30
2022-10-13T12:07:16.346Z,76.50
2022-10-13T12:08:16.305Z,76.70
2022-10-13T12:09:16.293Z,75.48
2022-10-13T12:10:16.295Z,77.20
2022-10-13T12:11:16.276Z,77.61
2022-10-13T12:12:16.275Z,76.70
2022-10-13T12:13:16.271Z,76.79
2022-10-13T12:14:16.243Z,77.30
2022-10-13T12:15:16.243Z,76.50
2022-10-13T12:16:16.248Z,76.29
2022-10-13T12:17:21.127Z,76.50
2022-10-13T12:18:17.191Z,76.70
2022-10-13T12:19:16.186Z,75.68
2022-10-13T12:20:16.171Z,75.34
2022-10-13T12:21:16.181Z,75.89
2022-10-13T12:22:16.158Z,75.34
2022-10-13T12:23:16.141Z,75.34
2022-10-13T12:24:16.126Z,75.45
2022-10-13T12:25:16.143Z,75.85
2022-10-13T12:26:16.104Z,76.72
2022-10-13T12:27:16.096Z,76.72
2022-10-13T12:28:16.128Z,75.41
2022-10-13T12:29:16.070Z,75.61
2022-10-13T12:30:16.071Z,75.61
2022-10-13T12:31:16.089Z,75.41
2022-10-13T12:32:16.148Z,76.46
2022-10-13T12:33:16.030Z,76.76
2022-10-13T12:34:16.027Z,75.65
2022-10-13T12:35:16.026Z,75.55
2022-10-13T12:36:18.949Z,75.85
2022-10-13T12:37:16.002Z,76.29
2022-10-13T12:38:15.973Z,76.70
2022-10-13T12:39:15.980Z,77.00
2022-10-13T12:40:15.956Z,77.10
2022-10-13T12:41:15.940Z,76.79
2022-10-13T12:42:15.923Z,76.70
2022-10-13T12:43:15.932Z,76.73
2022-10-13T12:44:15.924Z,76.43
2022-10-13T12:45:15.894Z,76.53
2022-10-13T12:46:15.894Z,77.95
2022-10-13T12:47:16.030Z,77.84
2022-10-13T12:48:15.884Z,76.83
2022-10-13T12:49:16.072Z,77.54
2022-10-13T12:50:15.858Z,77.64
2022-10-13T12:51:15.837Z,78.45
2022-10-13T12:52:15.835Z,77.24
2022-10-13T12:53:15.824Z,76.73
2022-10-13T12:54:15.796Z,77.54